Terminal Aerodrome Forecast
Issued by NWS

Home | Current Version | Previous Version | Text Only | Print | Product List | Glossary On
Versions: 1 2 3 4 5 6 7 8 9 10 11 12 13 14 15 16 17 18 19 20 21 22 23 24
000
FTUS45 KBOI 231743
TAFBKE
TAF
KBKE 231743Z 2318/2418 14009KT P6SM OVC100
     FM232200 12012G22KT P6SM VCSH OVC060
      TEMPO 2322/2401 4SM -SHSN BR OVC025
     FM240300 12010KT P6SM OVC080=

USA.gov is the U.S. government's official web portal to all federal, state and local government web resources and services.